Time;durP1;ratioP1;P1;durP2;ratioP2;P2;SDS_P1;SDS_P2;PMS_P1;PMS_P2;Temp;Humidity;BMP_temperature;BMP_pressure;BME280_temperature;BME280_humidity;BME280_pressure;Samples;Min_cycle;Max_cycle;Signal;HPM_P1;HPM_P2
2023/09/22 00:02:03;;;;;;;1.85;1.10;;;;;;;;;;5078223;28;20290;-71
2023/09/22 00:04:30;;;;;;;2.35;1.00;;;;;;;;;;5077877;28;20302;-70
2023/09/22 00:06:57;;;;;;;3.57;1.20;;;;;;;;;;5080775;28;20204;-67
2023/09/22 00:09:24;;;;;;;2.37;1.17;;;;;;;;;;5079472;28;20199;-65
2023/09/22 00:11:52;;;;;;;3.77;1.00;;;;;;;;;;5078668;28;20209;-67
2023/09/22 00:14:20;;;;;;;2.85;1.40;;;;;;;;;;5084263;28;20213;-65
2023/09/22 00:16:47;;;;;;;1.80;1.10;;;;;;;;;;5077822;28;20285;-66
2023/09/22 00:19:14;;;;;;;3.23;1.20;;;;;;;;;;5082958;28;20201;-66
2023/09/22 00:21:42;;;;;;;3.07;1.17;;;;;;;;;;5080388;28;20248;-66
2023/09/22 00:24:09;;;;;;;2.13;1.23;;;;;;;;;;5081529;28;20248;-66
2023/09/22 00:26:36;;;;;;;2.17;1.53;;;;;;;;;;5080163;28;20205;-66
2023/09/22 00:29:04;;;;;;;1.80;1.03;;;;;;;;;;5079531;28;20297;-66
2023/09/22 00:31:32;;;;;;;5.00;1.20;;;;;;;;;;5077491;28;20238;-66
2023/09/22 00:33:59;;;;;;;2.57;1.30;;;;;;;;;;5083459;28;20207;-65
2023/09/22 00:36:26;;;;;;;3.87;1.10;;;;;;;;;;5083275;28;20208;-65
2023/09/22 00:38:53;;;;;;;2.07;1.30;;;;;;;;;;5077726;28;20206;-66
2023/09/22 00:41:20;;;;;;;2.38;1.20;;;;;;;;;;5080853;28;20198;-65
2023/09/22 00:43:47;;;;;;;1.70;1.10;;;;;;;;;;5081825;28;20198;-66
2023/09/22 00:46:17;;;;;;;3.07;1.20;;;;;;;;;;5082309;28;20285;-65
2023/09/22 00:48:44;;;;;;;3.13;1.17;;;;;;;;;;5079664;28;20206;-66
2023/09/22 00:51:11;;;;;;;2.50;1.43;;;;;;;;;;5077070;28;20198;-66
2023/09/22 00:53:38;;;;;;;4.30;1.90;;;;;;;;;;5087364;28;20269;-66
2023/09/22 00:56:06;;;;;;;3.97;1.48;;;;;;;;;;5079934;28;20207;-66
2023/09/22 00:58:34;;;;;;;4.07;1.67;;;;;;;;;;5081706;28;20296;-66
2023/09/22 01:01:01;;;;;;;1.50;1.40;;;;;;;;;;5084168;28;20258;-66
2023/09/22 01:03:30;;;;;;;4.45;1.20;;;;;;;;;;5080943;28;20289;-66
2023/09/22 01:05:57;;;;;;;3.30;1.58;;;;;;;;;;5080569;28;20205;-66
2023/09/22 01:08:24;;;;;;;3.35;1.70;;;;;;;;;;5082089;28;20199;-65
2023/09/22 01:10:52;;;;;;;4.20;1.45;;;;;;;;;;5078047;28;20191;-66
2023/09/22 01:13:19;;;;;;;1.50;1.40;;;;;;;;;;5078693;28;20202;-66
2023/09/22 01:15:46;;;;;;;1.50;1.40;;;;;;;;;;5079979;28;20194;-65
2023/09/22 01:18:14;;;;;;;1.30;1.20;;;;;;;;;;5083717;28;20198;-69
2023/09/22 01:20:45;;;;;;;1.95;1.38;;;;;;;;;;5083065;28;20255;-69
2023/09/22 01:23:14;;;;;;;2.80;1.33;;;;;;;;;;5078377;28;20199;-70
2023/09/22 01:25:41;;;;;;;3.00;1.50;;;;;;;;;;5081424;28;20199;-70
2023/09/22 01:28:08;;;;;;;3.60;1.60;;;;;;;;;;5080691;28;20307;-70
2023/09/22 01:30:35;;;;;;;1.33;1.23;;;;;;;;;;5079123;28;20236;-69
2023/09/22 01:33:04;;;;;;;1.90;1.17;;;;;;;;;;5077940;28;20199;-70
2023/09/22 01:35:32;;;;;;;2.30;1.40;;;;;;;;;;5083382;28;20229;-70
2023/09/22 01:38:02;;;;;;;2.35;1.27;;;;;;;;;;5077568;28;20201;-69
2023/09/22 01:40:31;;;;;;;2.25;1.38;;;;;;;;;;5080032;28;20194;-69
2023/09/22 01:42:58;;;;;;;6.53;1.40;;;;;;;;;;5083380;28;20209;-69
2023/09/22 01:45:25;;;;;;;1.42;1.30;;;;;;;;;;5085207;28;20195;-69
2023/09/22 01:47:52;;;;;;;1.50;1.38;;;;;;;;;;5086925;28;20204;-69
2023/09/22 01:50:19;;;;;;;3.28;1.27;;;;;;;;;;5081837;28;20205;-69
2023/09/22 01:52:47;;;;;;;1.63;1.27;;;;;;;;;;5082477;28;20205;-70
2023/09/22 01:55:16;;;;;;;2.40;1.30;;;;;;;;;;5083765;28;20386;-70
2023/09/22 01:57:47;;;;;;;2.95;1.20;;;;;;;;;;5082524;28;20380;-70
2023/09/22 02:00:18;;;;;;;1.50;1.40;;;;;;;;;;5078633;28;20264;-70
2023/09/22 02:02:46;;;;;;;1.20;1.10;;;;;;;;;;5084361;28;20202;-70
2023/09/22 02:05:14;;;;;;;2.13;1.40;;;;;;;;;;5083078;28;20301;-70
2023/09/22 02:07:42;;;;;;;1.02;1.00;;;;;;;;;;5080376;28;20202;-71
2023/09/22 02:10:10;;;;;;;3.72;1.50;;;;;;;;;;5084967;28;20220;-70
2023/09/22 02:12:38;;;;;;;5.00;1.50;;;;;;;;;;5082052;28;20206;-70
2023/09/22 02:15:09;;;;;;;2.88;1.23;;;;;;;;;;5081981;28;20246;-70
2023/09/22 02:17:37;;;;;;;2.42;1.50;;;;;;;;;;5082816;28;20190;-70
2023/09/22 02:20:11;;;;;;;3.58;1.40;;;;;;;;;;5080450;28;20211;-70
2023/09/22 02:22:38;;;;;;;1.33;1.13;;;;;;;;;;5082405;28;20194;-70
2023/09/22 02:25:05;;;;;;;2.00;1.60;;;;;;;;;;5084098;28;20191;-70
2023/09/22 02:27:32;;;;;;;2.38;1.42;;;;;;;;;;5080195;28;20234;-70
2023/09/22 02:30:00;;;;;;;4.70;1.70;;;;;;;;;;5081888;28;20202;-70
2023/09/22 02:32:28;;;;;;;1.70;1.50;;;;;;;;;;5082348;28;20207;-71
2023/09/22 02:34:55;;;;;;;1.55;1.42;;;;;;;;;;5080079;28;20222;-70
2023/09/22 02:37:22;;;;;;;2.45;1.80;;;;;;;;;;5082352;28;20198;-70
2023/09/22 02:39:50;;;;;;;1.90;1.50;;;;;;;;;;5082465;28;20199;-70
2023/09/22 02:42:17;;;;;;;3.13;1.65;;;;;;;;;;5081401;28;20210;-70
2023/09/22 02:44:44;;;;;;;2.83;1.80;;;;;;;;;;5083733;28;20285;-69
2023/09/22 02:47:11;;;;;;;2.55;1.60;;;;;;;;;;5081868;28;20199;-70
2023/09/22 02:49:40;;;;;;;5.43;1.90;;;;;;;;;;5080333;28;20206;-70
2023/09/22 02:52:07;;;;;;;2.72;1.70;;;;;;;;;;5080275;28;20206;-69
2023/09/22 02:54:34;;;;;;;2.53;1.48;;;;;;;;;;5081056;28;20207;-70
2023/09/22 02:57:03;;;;;;;1.80;1.70;;;;;;;;;;5076253;28;20195;-70
2023/09/22 02:59:33;;;;;;;3.33;1.67;;;;;;;;;;5085316;28;20297;-70
2023/09/22 03:02:00;;;;;;;3.10;1.67;;;;;;;;;;5081122;28;20205;-71
2023/09/22 03:04:30;;;;;;;2.38;1.63;;;;;;;;;;5079009;28;20204;-70
2023/09/22 03:06:58;;;;;;;2.25;1.50;;;;;;;;;;5082434;28;20253;-69
2023/09/22 03:09:25;;;;;;;1.77;1.38;;;;;;;;;;5082342;28;20199;-70
2023/09/22 03:11:52;;;;;;;2.20;1.33;;;;;;;;;;5084341;28;20292;-70
2023/09/22 03:14:19;;;;;;;1.70;1.60;;;;;;;;;;5079427;28;20209;-70
2023/09/22 03:16:47;;;;;;;1.88;1.38;;;;;;;;;;5083690;28;20208;-70
2023/09/22 03:19:14;;;;;;;2.67;1.50;;;;;;;;;;5081518;28;20234;-70
2023/09/22 03:21:41;;;;;;;2.58;1.73;;;;;;;;;;5083044;28;20199;-70
2023/09/22 03:24:10;;;;;;;1.50;1.40;;;;;;;;;;5080793;28;20198;-69
2023/09/22 03:26:38;;;;;;;2.33;1.88;;;;;;;;;;5081527;28;20285;-69
2023/09/22 03:29:05;;;;;;;3.05;2.00;;;;;;;;;;5081592;28;20201;-69
2023/09/22 03:31:32;;;;;;;1.63;1.52;;;;;;;;;;5080923;28;20284;-70
2023/09/22 03:33:59;;;;;;;3.53;1.83;;;;;;;;;;5083024;28;20197;-70
2023/09/22 03:36:30;;;;;;;2.30;2.00;;;;;;;;;;5085677;28;20303;-65
2023/09/22 03:38:57;;;;;;;2.25;1.88;;;;;;;;;;5080731;28;20293;-65
2023/09/22 03:41:28;;;;;;;3.78;1.95;;;;;;;;;;5082466;28;20198;-65
2023/09/22 03:43:56;;;;;;;2.03;1.77;;;;;;;;;;5080592;28;20194;-66
2023/09/22 03:46:23;;;;;;;2.95;1.73;;;;;;;;;;5082539;28;20195;-66
2023/09/22 03:48:51;;;;;;;4.60;1.80;;;;;;;;;;5080091;28;20289;-66
2023/09/22 03:51:18;;;;;;;2.70;1.40;;;;;;;;;;5079035;28;20195;-68
2023/09/22 03:53:45;;;;;;;3.33;1.77;;;;;;;;;;5081477;28;20223;-66
2023/09/22 03:56:12;;;;;;;3.65;1.80;;;;;;;;;;5080613;28;20282;-67
2023/09/22 03:58:42;;;;;;;3.17;1.95;;;;;;;;;;5080348;28;20206;-66
2023/09/22 04:01:09;;;;;;;2.08;1.88;;;;;;;;;;5081800;28;20205;-66
2023/09/22 04:03:37;;;;;;;2.88;1.90;;;;;;;;;;5073888;28;20506;-65
2023/09/22 04:06:05;;;;;;;2.33;1.83;;;;;;;;;;5077495;28;20198;-65
2023/09/22 04:08:33;;;;;;;2.58;1.48;;;;;;;;;;5077558;28;20238;-66
2023/09/22 04:11:02;;;;;;;2.92;1.40;;;;;;;;;;5076192;28;20201;-65
2023/09/22 04:13:29;;;;;;;2.55;1.30;;;;;;;;;;5074775;28;20202;-67
2023/09/22 04:16:01;;;;;;;2.80;1.50;;;;;;;;;;5079603;28;20210;-65
2023/09/22 04:18:29;;;;;;;2.45;1.10;;;;;;;;;;5074903;28;20195;-66
2023/09/22 04:20:57;;;;;;;3.53;1.48;;;;;;;;;;5077370;28;20214;-67
2023/09/22 04:23:25;;;;;;;3.53;1.33;;;;;;;;;;5073976;28;20209;-66
2023/09/22 04:25:54;;;;;;;6.22;1.60;;;;;;;;;;5083795;28;20207;-66
2023/09/22 04:28:23;;;;;;;1.50;1.20;;;;;;;;;;5082870;28;20209;-66
2023/09/22 04:30:50;;;;;;;1.67;1.30;;;;;;;;;;5079809;28;20222;-65
2023/09/22 04:33:20;;;;;;;1.88;1.23;;;;;;;;;;5076656;28;20206;-65
2023/09/22 04:35:48;;;;;;;2.00;1.50;;;;;;;;;;5078628;28;20241;-65
2023/09/22 04:38:16;;;;;;;5.22;1.50;;;;;;;;;;5078245;28;20195;-65
2023/09/22 04:40:43;;;;;;;1.95;1.42;;;;;;;;;;5079226;28;20190;-66
2023/09/22 04:43:11;;;;;;;1.83;1.20;;;;;;;;;;5082988;28;20198;-66
2023/09/22 04:45:40;;;;;;;3.05;1.33;;;;;;;;;;5080534;28;20207;-65
2023/09/22 04:48:07;;;;;;;2.45;1.40;;;;;;;;;;5076653;28;20203;-65
2023/09/22 04:50:36;;;;;;;3.45;1.35;;;;;;;;;;5081221;28;20194;-66
2023/09/22 04:53:04;;;;;;;2.45;1.20;;;;;;;;;;5078767;28;20232;-65
2023/09/22 04:55:35;;;;;;;3.40;1.48;;;;;;;;;;5081223;28;20226;-65
2023/09/22 04:58:05;;;;;;;2.83;1.15;;;;;;;;;;5077810;28;20220;-66
2023/09/22 05:00:33;;;;;;;4.22;1.30;;;;;;;;;;5076999;28;20190;-67
2023/09/22 05:03:01;;;;;;;1.73;1.10;;;;;;;;;;5077892;28;20260;-66
2023/09/22 05:05:28;;;;;;;1.30;1.15;;;;;;;;;;5082169;28;20286;-65
2023/09/22 05:07:56;;;;;;;2.95;1.45;;;;;;;;;;5075777;28;20229;-66
2023/09/22 05:10:24;;;;;;;2.35;1.30;;;;;;;;;;5086561;28;20206;-66
2023/09/22 05:12:52;;;;;;;2.03;1.58;;;;;;;;;;5071218;28;20259;-65
2023/09/22 05:15:22;;;;;;;1.60;1.30;;;;;;;;;;5072892;28;20225;-65
2023/09/22 05:17:49;;;;;;;2.33;1.38;;;;;;;;;;5081236;28;20205;-66
2023/09/22 05:20:20;;;;;;;3.13;1.10;;;;;;;;;;5079395;28;20202;-65
2023/09/22 05:22:47;;;;;;;1.95;1.20;;;;;;;;;;5083246;28;20202;-65
2023/09/22 05:25:16;;;;;;;3.08;1.10;;;;;;;;;;5081638;28;20203;-65
2023/09/22 05:27:45;;;;;;;2.70;1.17;;;;;;;;;;5084852;28;20194;-66
2023/09/22 05:30:13;;;;;;;2.20;1.20;;;;;;;;;;5085009;28;20233;-66
2023/09/22 05:32:41;;;;;;;2.90;1.20;;;;;;;;;;5080107;28;20202;-66
2023/09/22 05:35:08;;;;;;;1.65;1.10;;;;;;;;;;5077171;28;20217;-66
2023/09/22 05:37:35;;;;;;;2.17;1.13;;;;;;;;;;5080392;28;20201;-65
2023/09/22 05:40:10;;;;;;;5.73;1.20;;;;;;;;;;5084087;28;20198;-66
2023/09/22 05:42:39;;;;;;;1.35;1.20;;;;;;;;;;5080527;28;20202;-66
2023/09/22 05:45:11;;;;;;;3.38;1.30;;;;;;;;;;5084482;28;20210;-65
2023/09/22 05:47:38;;;;;;;5.35;1.10;;;;;;;;;;5074686;28;20199;-65
2023/09/22 05:50:06;;;;;;;4.60;1.10;;;;;;;;;;5081341;28;20195;-65
2023/09/22 05:52:34;;;;;;;1.45;1.15;;;;;;;;;;5083296;28;20262;-65
2023/09/22 05:55:01;;;;;;;2.50;1.20;;;;;;;;;;5074976;28;20238;-65
2023/09/22 05:57:29;;;;;;;3.35;1.20;;;;;;;;;;5076045;28;20253;-69
2023/09/22 05:59:58;;;;;;;3.33;1.10;;;;;;;;;;5077042;28;20256;-70
2023/09/22 06:02:28;;;;;;;3.20;1.13;;;;;;;;;;5082280;28;20210;-69
2023/09/22 06:04:55;;;;;;;3.53;1.25;;;;;;;;;;5078536;28;20198;-70
2023/09/22 06:07:22;;;;;;;2.63;1.15;;;;;;;;;;5083782;28;20244;-70
2023/09/22 06:09:50;;;;;;;3.05;1.40;;;;;;;;;;5083448;28;20243;-70
2023/09/22 06:12:17;;;;;;;1.50;1.15;;;;;;;;;;5080110;28;20202;-71
2023/09/22 06:14:44;;;;;;;3.78;1.27;;;;;;;;;;5085223;28;20198;-70
2023/09/22 06:17:13;;;;;;;3.20;1.10;;;;;;;;;;5079295;28;20211;-69
2023/09/22 06:19:40;;;;;;;1.60;1.00;;;;;;;;;;5084246;28;20229;-71
2023/09/22 06:22:10;;;;;;;2.90;1.30;;;;;;;;;;5083293;28;20242;-70
2023/09/22 06:24:37;;;;;;;1.42;0.90;;;;;;;;;;5075020;28;20202;-71
2023/09/22 06:27:04;;;;;;;2.10;1.15;;;;;;;;;;5085522;28;20190;-71
2023/09/22 06:29:32;;;;;;;2.40;1.15;;;;;;;;;;5085397;28;20206;-70
2023/09/22 06:31:59;;;;;;;1.20;0.98;;;;;;;;;;5085101;28;20233;-70
2023/09/22 06:34:28;;;;;;;1.67;1.00;;;;;;;;;;5081797;28;20235;-70
2023/09/22 06:36:55;;;;;;;3.15;0.95;;;;;;;;;;5087439;28;20202;-69
2023/09/22 06:39:22;;;;;;;3.03;1.13;;;;;;;;;;5079907;28;20312;-70
2023/09/22 06:41:49;;;;;;;4.60;1.15;;;;;;;;;;5080612;28;20205;-70
2023/09/22 06:44:17;;;;;;;4.40;1.40;;;;;;;;;;5080731;28;20210;-70
2023/09/22 06:46:44;;;;;;;2.22;1.27;;;;;;;;;;5084855;28;20197;-70
2023/09/22 06:49:11;;;;;;;3.50;1.20;;;;;;;;;;5086199;28;20198;-70
2023/09/22 06:51:39;;;;;;;2.90;1.33;;;;;;;;;;5087627;28;20202;-70
2023/09/22 06:54:06;;;;;;;2.53;1.23;;;;;;;;;;5085949;28;20202;-71
2023/09/22 06:56:35;;;;;;;1.65;1.10;;;;;;;;;;5080788;28;20218;-70
2023/09/22 06:59:05;;;;;;;5.80;1.95;;;;;;;;;;5079297;28;20249;-69
2023/09/22 07:01:34;;;;;;;4.15;1.30;;;;;;;;;;5082643;28;20194;-71
2023/09/22 07:04:01;;;;;;;2.97;1.40;;;;;;;;;;5081086;28;20198;-70
2023/09/22 07:06:28;;;;;;;4.38;1.38;;;;;;;;;;5085431;28;20195;-67
2023/09/22 07:08:57;;;;;;;2.65;1.60;;;;;;;;;;5077323;28;20204;-65
2023/09/22 07:11:24;;;;;;;3.75;1.38;;;;;;;;;;5081856;28;20195;-66
2023/09/22 07:13:51;;;;;;;2.95;1.55;;;;;;;;;;5084032;28;20198;-65
2023/09/22 07:16:20;;;;;;;4.75;1.60;;;;;;;;;;5083197;28;20229;-65
2023/09/22 07:18:47;;;;;;;4.22;1.75;;;;;;;;;;5081958;28;20244;-65
2023/09/22 07:21:14;;;;;;;3.42;1.73;;;;;;;;;;5084766;28;20203;-65
2023/09/22 07:23:41;;;;;;;5.78;1.30;;;;;;;;;;5083634;28;20205;-65
2023/09/22 07:26:11;;;;;;;2.70;1.45;;;;;;;;;;5082485;28;20281;-66
2023/09/22 07:28:39;;;;;;;1.63;1.10;;;;;;;;;;5082434;28;20203;-65
2023/09/22 07:31:12;;;;;;;5.03;1.45;;;;;;;;;;5086975;28;20229;-67
2023/09/22 07:33:39;;;;;;;3.67;1.48;;;;;;;;;;5080755;28;20195;-66
2023/09/22 07:36:07;;;;;;;4.65;1.35;;;;;;;;;;5083091;28;20217;-65
2023/09/22 07:38:34;;;;;;;3.17;1.15;;;;;;;;;;5081654;28;20203;-65
2023/09/22 07:41:01;;;;;;;6.47;1.35;;;;;;;;;;5082042;28;20209;-65
2023/09/22 07:43:30;;;;;;;2.20;1.27;;;;;;;;;;5083609;28;20263;-66
2023/09/22 07:45:58;;;;;;;5.50;1.40;;;;;;;;;;5082911;28;20201;-65
2023/09/22 07:48:25;;;;;;;4.82;1.88;;;;;;;;;;5083095;28;20210;-66
2023/09/22 07:50:53;;;;;;;6.63;2.17;;;;;;;;;;5078506;28;20202;-65
2023/09/22 07:53:20;;;;;;;2.70;1.50;;;;;;;;;;5080171;28;20297;-66
2023/09/22 07:55:47;;;;;;;2.92;1.52;;;;;;;;;;5078335;28;20267;-66
2023/09/22 07:58:15;;;;;;;4.43;1.48;;;;;;;;;;5076659;28;20214;-67
2023/09/22 08:00:46;;;;;;;2.88;1.40;;;;;;;;;;5075877;28;20199;-66
2023/09/22 08:03:14;;;;;;;3.08;1.42;;;;;;;;;;5073026;28;20230;-66
2023/09/22 08:05:41;;;;;;;2.72;1.27;;;;;;;;;;5079207;28;20207;-66
2023/09/22 08:08:10;;;;;;;3.47;1.48;;;;;;;;;;5076105;28;20205;-66
2023/09/22 08:10:38;;;;;;;3.20;1.42;;;;;;;;;;5077054;28;20202;-66
2023/09/22 08:16:00;;;;;;;4.18;1.10;;;;;;;;;;5042841;28;20271;-65
2023/09/22 08:18:37;;;;;;;5.15;1.35;;;;;;;;;;5073954;28;20260;-65
2023/09/22 08:21:04;;;;;;;2.20;1.33;;;;;;;;;;5078194;28;20236;-65
2023/09/22 08:23:31;;;;;;;2.35;1.05;;;;;;;;;;5076460;28;20206;-66
2023/09/22 08:25:58;;;;;;;4.32;1.40;;;;;;;;;;5082582;28;20202;-66
2023/09/22 08:28:26;;;;;;;2.58;1.20;;;;;;;;;;5076278;28;20202;-67
2023/09/22 08:30:56;;;;;;;3.92;1.10;;;;;;;;;;5075051;28;20238;-67
2023/09/22 08:33:25;;;;;;;2.08;0.93;;;;;;;;;;5077265;28;20269;-66
2023/09/22 08:35:52;;;;;;;3.95;1.10;;;;;;;;;;5078577;28;20191;-66
2023/09/22 08:38:20;;;;;;;6.13;1.25;;;;;;;;;;5078147;28;20199;-65
2023/09/22 08:40:47;;;;;;;2.03;1.00;;;;;;;;;;5076870;28;20202;-66
2023/09/22 08:43:15;;;;;;;3.78;1.08;;;;;;;;;;5080760;28;20235;-66
2023/09/22 08:45:42;;;;;;;2.53;0.95;;;;;;;;;;5077063;28;20202;-66
2023/09/22 08:48:10;;;;;;;2.95;1.13;;;;;;;;;;5092894;28;20199;-66
2023/09/22 08:50:39;;;;;;;5.13;1.10;;;;;;;;;;5077342;28;20198;-66
2023/09/22 08:53:06;;;;;;;2.25;1.00;;;;;;;;;;5075220;28;20210;-66
2023/09/22 08:55:35;;;;;;;2.20;1.10;;;;;;;;;;5080663;28;20198;-66
2023/09/22 08:58:03;;;;;;;1.88;1.00;;;;;;;;;;5078755;28;20230;-66
2023/09/22 09:00:30;;;;;;;2.28;1.10;;;;;;;;;;5079589;28;20205;-66
2023/09/22 09:02:59;;;;;;;2.25;0.98;;;;;;;;;;5073265;28;20198;-66
2023/09/22 09:05:28;;;;;;;1.05;0.80;;;;;;;;;;5080497;28;20199;-65
2023/09/22 09:07:57;;;;;;;3.97;1.10;;;;;;;;;;5080887;28;20234;-65
2023/09/22 09:10:31;;;;;;;1.52;1.00;;;;;;;;;;5079692;28;20209;-65
2023/09/22 09:13:02;;;;;;;3.15;1.10;;;;;;;;;;5078693;28;20190;-66
2023/09/22 09:15:30;;;;;;;2.15;1.10;;;;;;;;;;5079312;28;20263;-65
2023/09/22 09:18:04;;;;;;;3.13;0.93;;;;;;;;;;5079116;28;20249;-66
2023/09/22 09:20:32;;;;;;;2.97;1.17;;;;;;;;;;5084083;28;20287;-67
2023/09/22 09:23:06;;;;;;;2.72;0.95;;;;;;;;;;5071439;28;20244;-66
2023/09/22 09:25:35;;;;;;;2.58;1.13;;;;;;;;;;5079982;28;20193;-66
2023/09/22 09:28:03;;;;;;;2.95;1.08;;;;;;;;;;5077498;28;20225;-66
2023/09/22 09:30:32;;;;;;;2.95;1.08;;;;;;;;;;5075831;28;20289;-66
2023/09/22 09:33:09;;;;;;;1.23;0.90;;;;;;;;;;5078693;28;20290;-66
2023/09/22 09:35:41;;;;;;;1.20;1.00;;;;;;;;;;5077286;28;20205;-65
2023/09/22 09:38:10;;;;;;;1.83;1.23;;;;;;;;;;5078692;28;20297;-66
2023/09/22 09:40:41;;;;;;;3.78;1.20;;;;;;;;;;5081212;28;20205;-66
2023/09/22 09:43:11;;;;;;;3.90;1.25;;;;;;;;;;5073601;28;20210;-66
2023/09/22 09:45:43;;;;;;;3.08;1.40;;;;;;;;;;5080279;28;20286;-67
2023/09/22 09:48:14;;;;;;;2.50;1.00;;;;;;;;;;5075693;28;20195;-66
2023/09/22 09:50:42;;;;;;;4.10;1.30;;;;;;;;;;5080525;28;20234;-66
2023/09/22 09:53:16;;;;;;;2.90;1.10;;;;;;;;;;5074535;28;20287;-66
2023/09/22 09:55:45;;;;;;;1.98;1.10;;;;;;;;;;5078168;28;20267;-66
2023/09/22 09:58:12;;;;;;;4.60;1.20;;;;;;;;;;5079509;28;20214;-65
2023/09/22 10:00:42;;;;;;;2.35;1.10;;;;;;;;;;5080808;28;20202;-66
2023/09/22 10:03:11;;;;;;;3.92;1.48;;;;;;;;;;5077679;28;20198;-66
2023/09/22 10:05:39;;;;;;;1.75;1.10;;;;;;;;;;5081920;28;20209;-66
2023/09/22 10:08:07;;;;;;;3.40;1.13;;;;;;;;;;5078288;28;20218;-66
2023/09/22 10:10:38;;;;;;;1.50;0.90;;;;;;;;;;5082314;28;20285;-65
2023/09/22 10:13:07;;;;;;;6.43;1.23;;;;;;;;;;5082756;28;20298;-65
2023/09/22 10:15:54;;;;;;;3.13;1.10;;;;;;;;;;5081505;28;20227;-66
2023/09/22 10:18:23;;;;;;;2.03;1.10;;;;;;;;;;5076955;28;20225;-66
2023/09/22 10:20:51;;;;;;;2.40;0.98;;;;;;;;;;5082452;28;20318;-66
2023/09/22 10:23:22;;;;;;;1.50;1.20;;;;;;;;;;5078264;28;20513;-66
2023/09/22 10:26:08;;;;;;;1.88;1.00;;;;;;;;;;5078256;28;20195;-66
2023/09/22 10:28:38;;;;;;;2.28;1.08;;;;;;;;;;5082008;28;20198;-67
2023/09/22 10:31:05;;;;;;;3.55;1.20;;;;;;;;;;5080994;28;20234;-66
2023/09/22 10:33:33;;;;;;;3.15;0.98;;;;;;;;;;5077283;28;20610;-66
2023/09/22 10:36:01;;;;;;;3.72;1.10;;;;;;;;;;5080895;28;20210;-66
2023/09/22 10:38:28;;;;;;;3.22;1.23;;;;;;;;;;5076995;28;20276;-65
2023/09/22 10:41:05;;;;;;;1.77;1.00;;;;;;;;;;5079844;28;20203;-65
2023/09/22 10:43:34;;;;;;;2.92;1.20;;;;;;;;;;5080858;28;20237;-65
2023/09/22 10:46:03;;;;;;;2.47;1.20;;;;;;;;;;5082251;28;20299;-66
2023/09/22 10:48:35;;;;;;;2.53;0.98;;;;;;;;;;5081691;28;20203;-65
2023/09/22 10:51:03;;;;;;;1.13;0.93;;;;;;;;;;5085860;28;20281;-65
2023/09/22 10:53:38;;;;;;;1.60;1.02;;;;;;;;;;5082465;28;20221;-65
2023/09/22 10:56:06;;;;;;;1.58;0.90;;;;;;;;;;5083004;28;20237;-65
2023/09/22 10:58:34;;;;;;;2.67;1.05;;;;;;;;;;5078730;28;20284;-66
2023/09/22 11:01:04;;;;;;;3.90;1.00;;;;;;;;;;5077386;28;20197;-65
2023/09/22 11:03:33;;;;;;;3.15;1.20;;;;;;;;;;5078125;28;20226;-67
2023/09/22 11:06:03;;;;;;;5.55;1.35;;;;;;;;;;5078457;28;20199;-65
2023/09/22 11:08:30;;;;;;;2.08;1.05;;;;;;;;;;5079743;28;20189;-66
2023/09/22 11:10:58;;;;;;;1.42;1.02;;;;;;;;;;5083592;28;20260;-66
2023/09/22 11:13:26;;;;;;;3.13;1.10;;;;;;;;;;5079433;28;20290;-66
2023/09/22 11:15:56;;;;;;;2.80;1.10;;;;;;;;;;5079398;28;20266;-65
2023/09/22 11:18:26;;;;;;;2.38;1.05;;;;;;;;;;5077499;28;20287;-69
2023/09/22 11:20:57;;;;;;;3.03;1.23;;;;;;;;;;5072769;28;20198;-69
2023/09/22 11:23:25;;;;;;;2.40;1.25;;;;;;;;;;5071435;28;20202;-69
2023/09/22 11:25:56;;;;;;;1.95;1.10;;;;;;;;;;5077374;28;20195;-70
2023/09/22 11:28:23;;;;;;;2.63;1.02;;;;;;;;;;5078669;28;20199;-70
2023/09/22 11:30:51;;;;;;;2.47;1.27;;;;;;;;;;5076847;28;20299;-70
2023/09/22 11:33:18;;;;;;;2.22;1.35;;;;;;;;;;5071653;28;20230;-69
2023/09/22 11:35:49;;;;;;;3.35;1.15;;;;;;;;;;5077788;28;20203;-70
2023/09/22 11:38:25;;;;;;;4.90;1.42;;;;;;;;;;5072211;28;20272;-70
2023/09/22 11:40:53;;;;;;;2.08;1.50;;;;;;;;;;5073125;28;20194;-70
2023/09/22 11:43:21;;;;;;;3.58;1.52;;;;;;;;;;5075881;28;20199;-69
2023/09/22 11:45:48;;;;;;;2.05;1.25;;;;;;;;;;5057026;28;20194;-68
2023/09/22 11:48:16;;;;;;;1.10;1.00;;;;;;;;;;5075392;28;20194;-70
2023/09/22 11:50:43;;;;;;;1.58;1.00;;;;;;;;;;5073473;28;20187;-69
2023/09/22 11:53:17;;;;;;;2.33;1.00;;;;;;;;;;5077871;28;20206;-70
2023/09/22 11:55:45;;;;;;;2.42;1.30;;;;;;;;;;5075739;28;20194;-69
2023/09/22 11:58:14;;;;;;;3.53;1.17;;;;;;;;;;5074019;28;20234;-69
2023/09/22 12:00:41;;;;;;;2.22;0.90;;;;;;;;;;5078858;28;20202;-68
2023/09/22 12:03:08;;;;;;;3.63;1.23;;;;;;;;;;5076004;28;20206;-68
2023/09/22 12:05:36;;;;;;;2.58;1.10;;;;;;;;;;5075726;28;20217;-68
2023/09/22 12:08:05;;;;;;;2.08;1.60;;;;;;;;;;5074797;28;20286;-68
2023/09/22 12:10:34;;;;;;;4.35;1.90;;;;;;;;;;5079009;28;20190;-68
2023/09/22 12:13:01;;;;;;;3.40;1.85;;;;;;;;;;5075781;28;20205;-68
2023/09/22 12:15:29;;;;;;;4.40;1.60;;;;;;;;;;5078985;28;20252;-67
2023/09/22 12:17:56;;;;;;;3.58;1.35;;;;;;;;;;5072746;28;20227;-68
2023/09/22 12:20:23;;;;;;;2.33;1.27;;;;;;;;;;5079523;28;20202;-67
2023/09/22 12:22:51;;;;;;;3.35;1.40;;;;;;;;;;5076844;28;20256;-68
2023/09/22 12:25:18;;;;;;;4.35;1.70;;;;;;;;;;5078845;28;20194;-68
2023/09/22 12:27:47;;;;;;;1.92;1.30;;;;;;;;;;5078092;28;20248;-64
2023/09/22 12:30:16;;;;;;;3.22;1.20;;;;;;;;;;5082833;28;20234;-64
2023/09/22 12:32:43;;;;;;;3.83;1.15;;;;;;;;;;5076536;28;20207;-63
2023/09/22 12:35:11;;;;;;;2.92;1.10;;;;;;;;;;5076422;28;20251;-64
2023/09/22 12:37:38;;;;;;;2.67;1.23;;;;;;;;;;5079180;28;20299;-65
2023/09/22 12:40:05;;;;;;;2.90;1.00;;;;;;;;;;5082426;28;20206;-64
2023/09/22 12:42:33;;;;;;;3.42;1.25;;;;;;;;;;5075301;28;20277;-64
2023/09/22 12:45:02;;;;;;;3.13;1.40;;;;;;;;;;5076485;28;20463;-64
2023/09/22 12:47:29;;;;;;;0.93;0.80;;;;;;;;;;5076165;28;20211;-64
2023/09/22 12:49:56;;;;;;;3.58;1.23;;;;;;;;;;5076945;28;20217;-64
2023/09/22 12:52:24;;;;;;;3.33;1.27;;;;;;;;;;5076384;28;20221;-64
2023/09/22 12:54:52;;;;;;;3.25;1.08;;;;;;;;;;5074046;28;20191;-64
2023/09/22 12:57:20;;;;;;;3.15;1.10;;;;;;;;;;5073487;28;20234;-64
2023/09/22 12:59:47;;;;;;;5.22;1.55;;;;;;;;;;5076805;28;20234;-65
2023/09/22 13:02:18;;;;;;;3.25;1.20;;;;;;;;;;5072654;28;20234;-66
2023/09/22 13:04:46;;;;;;;2.42;1.30;;;;;;;;;;5072689;28;20226;-63
2023/09/22 13:07:15;;;;;;;5.80;1.35;;;;;;;;;;5079609;28;20281;-63
2023/09/22 13:09:42;;;;;;;2.10;1.20;;;;;;;;;;5077312;28;20195;-63
2023/09/22 13:12:09;;;;;;;3.38;1.30;;;;;;;;;;5075119;28;20289;-66
2023/09/22 13:14:37;;;;;;;3.42;1.35;;;;;;;;;;5072788;28;20206;-64
2023/09/22 13:17:04;;;;;;;2.63;1.20;;;;;;;;;;5077223;28;20195;-65
2023/09/22 13:19:34;;;;;;;6.38;1.52;;;;;;;;;;5075140;28;20336;-65
2023/09/22 13:22:01;;;;;;;3.45;1.33;;;;;;;;;;5079448;28;20210;-65
2023/09/22 13:24:29;;;;;;;3.15;1.13;;;;;;;;;;5082985;28;20204;-64
2023/09/22 13:26:56;;;;;;;1.77;1.23;;;;;;;;;;5081461;28;20288;-65
2023/09/22 13:29:23;;;;;;;1.98;1.05;;;;;;;;;;5076346;28;20209;-67
2023/09/22 13:31:50;;;;;;;2.22;0.93;;;;;;;;;;5077508;28;20250;-63
2023/09/22 13:34:18;;;;;;;2.00;1.00;;;;;;;;;;5077150;28;20268;-64
2023/09/22 13:36:46;;;;;;;2.70;1.30;;;;;;;;;;5079540;28;20198;-68
2023/09/22 13:39:13;;;;;;;2.78;1.13;;;;;;;;;;5074318;28;20256;-69
2023/09/22 13:41:41;;;;;;;2.10;0.95;;;;;;;;;;5076548;28;20194;-70
2023/09/22 13:44:09;;;;;;;2.10;1.02;;;;;;;;;;5075983;28;20194;-69
2023/09/22 13:46:43;;;;;;;1.80;1.08;;;;;;;;;;5079678;28;20217;-69
2023/09/22 13:49:11;;;;;;;2.75;1.08;;;;;;;;;;5079702;28;20198;-68
2023/09/22 13:51:40;;;;;;;3.03;1.15;;;;;;;;;;5080822;28;20191;-70
2023/09/22 13:54:09;;;;;;;3.17;0.98;;;;;;;;;;5081366;28;20229;-70
2023/09/22 13:56:36;;;;;;;4.38;1.27;;;;;;;;;;5085716;28;20198;-70
2023/09/22 13:59:04;;;;;;;3.53;1.30;;;;;;;;;;5080247;28;20264;-72
2023/09/22 14:01:31;;;;;;;3.35;1.27;;;;;;;;;;5077436;28;20235;-71
2023/09/22 14:03:59;;;;;;;3.75;1.33;;;;;;;;;;5075515;28;20229;-69
2023/09/22 14:06:26;;;;;;;2.33;1.00;;;;;;;;;;5083756;28;20256;-69
2023/09/22 14:08:55;;;;;;;3.55;1.35;;;;;;;;;;5088234;28;20204;-69
2023/09/22 14:11:23;;;;;;;3.15;0.82;;;;;;;;;;5079788;28;20275;-68
2023/09/22 14:13:51;;;;;;;2.47;0.80;;;;;;;;;;5081581;28;20286;-68
2023/09/22 14:16:18;;;;;;;3.75;1.10;;;;;;;;;;5080433;28;20206;-68
2023/09/22 14:18:46;;;;;;;1.80;0.63;;;;;;;;;;5083429;28;20210;-68
2023/09/22 14:21:14;;;;;;;1.50;0.82;;;;;;;;;;5080431;28;20286;-69
2023/09/22 14:23:45;;;;;;;2.50;0.63;;;;;;;;;;5080617;28;20234;-69
2023/09/22 14:26:13;;;;;;;1.73;0.80;;;;;;;;;;5078320;28;20268;-69
2023/09/22 14:28:45;;;;;;;1.67;0.80;;;;;;;;;;5078099;28;20198;-69
2023/09/22 14:31:16;;;;;;;3.40;0.95;;;;;;;;;;5076465;28;20262;-69
2023/09/22 14:33:44;;;;;;;1.45;0.80;;;;;;;;;;5080334;28;20190;-68
2023/09/22 14:36:11;;;;;;;2.15;0.85;;;;;;;;;;5079050;28;20205;-68
2023/09/22 14:38:39;;;;;;;1.55;0.88;;;;;;;;;;5082224;28;20244;-68
2023/09/22 14:41:09;;;;;;;1.10;0.57;;;;;;;;;;5077395;28;20272;-68
2023/09/22 14:43:36;;;;;;;1.58;0.70;;;;;;;;;;5077982;28;20233;-68
2023/09/22 14:46:06;;;;;;;2.00;1.05;;;;;;;;;;5079688;28;20199;-69
2023/09/22 14:48:34;;;;;;;1.88;0.60;;;;;;;;;;5075676;28;20199;-65
2023/09/22 14:51:02;;;;;;;1.30;0.70;;;;;;;;;;5081559;28;20431;-65
2023/09/22 14:53:30;;;;;;;1.38;0.90;;;;;;;;;;5083002;28;20209;-65